createdAt,value
2023-02-20T00:01:38.767Z,6.10
2023-02-20T00:04:06.646Z,6.06
2023-02-20T00:06:34.204Z,5.96
2023-02-20T00:09:01.784Z,6.19
2023-02-20T00:11:30.291Z,6.02
2023-02-20T00:13:57.829Z,6.39
2023-02-20T00:16:25.543Z,6.38
2023-02-20T00:18:53.472Z,6.28
2023-02-20T00:21:21.141Z,6.47
2023-02-20T00:23:48.721Z,6.42
2023-02-20T00:26:16.644Z,5.89
2023-02-20T00:28:44.801Z,6.35
2023-02-20T00:31:15.774Z,6.63
2023-02-20T00:33:44.018Z,6.79
2023-02-20T00:36:17.170Z,6.84
2023-02-20T00:38:46.447Z,6.97
2023-02-20T00:41:15.592Z,7.15
2023-02-20T00:43:44.197Z,6.86
2023-02-20T00:46:13.810Z,7.02
2023-02-20T00:48:43.629Z,7.21
2023-02-20T00:51:27.391Z,7.31
2023-02-20T00:53:55.564Z,7.46
2023-02-20T00:56:23.188Z,7.35
2023-02-20T00:58:51.269Z,7.51
2023-02-20T01:01:19.223Z,7.67
2023-02-20T01:03:46.963Z,7.78
2023-02-20T01:06:15.936Z,7.79
2023-02-20T01:08:44.272Z,7.80
2023-02-20T01:11:12.274Z,7.76
2023-02-20T01:13:39.890Z,7.73
2023-02-20T01:16:08.128Z,7.77
2023-02-20T01:18:36.280Z,7.88
2023-02-20T01:21:03.940Z,7.64
2023-02-20T01:23:31.861Z,7.43
2023-02-20T01:25:59.452Z,7.26
2023-02-20T01:28:29.050Z,7.30
2023-02-20T01:30:57.150Z,7.33
2023-02-20T01:33:24.861Z,7.14
2023-02-20T01:35:52.470Z,7.39
2023-02-20T01:38:22.829Z,7.57
2023-02-20T01:40:50.444Z,7.59
2023-02-20T01:43:18.577Z,7.61
2023-02-20T01:45:46.572Z,7.53
2023-02-20T01:48:23.529Z,7.51
2023-02-20T01:50:58.322Z,7.60
2023-02-20T01:53:30.428Z,7.40
2023-02-20T01:56:09.881Z,7.57
2023-02-20T01:58:44.945Z,7.64
2023-02-20T02:01:13.339Z,7.71
2023-02-20T02:03:44.981Z,7.74
2023-02-20T02:06:14.978Z,7.64
2023-02-20T02:08:45.570Z,7.38
2023-02-20T02:11:17.726Z,7.41
2023-02-20T02:13:45.647Z,7.48
2023-02-20T02:16:52.439Z,6.99
2023-02-20T02:19:28.888Z,7.23
2023-02-20T02:22:37.523Z,7.47
2023-02-20T02:25:32.994Z,7.48
2023-02-20T02:28:33.167Z,7.52
2023-02-20T02:31:19.272Z,7.57
2023-02-20T02:33:56.524Z,7.58
2023-02-20T02:36:30.258Z,7.45
2023-02-20T02:39:20.680Z,7.25
2023-02-20T02:42:00.720Z,7.27
2023-02-20T02:44:37.285Z,7.40
2023-02-20T02:47:08.633Z,7.51
2023-02-20T02:49:36.535Z,7.44
2023-02-20T02:52:05.675Z,7.41
2023-02-20T02:54:33.471Z,7.37
2023-02-20T02:57:40.178Z,7.36
2023-02-20T03:00:13.696Z,7.40
2023-02-20T03:03:03.123Z,7.44
2023-02-20T03:05:55.668Z,7.45
2023-02-20T03:08:32.910Z,7.29
2023-02-20T03:11:06.421Z,7.52
2023-02-20T03:14:03.377Z,7.41
2023-02-20T03:16:44.129Z,7.48
2023-02-20T03:19:14.989Z,7.26
2023-02-20T03:21:48.471Z,6.93
2023-02-20T03:24:20.404Z,7.21
2023-02-20T03:26:49.294Z,7.14
2023-02-20T03:29:28.084Z,7.26
2023-02-20T03:32:20.592Z,7.23
2023-02-20T03:35:09.418Z,7.31
2023-02-20T03:37:58.356Z,7.28
2023-02-20T03:40:46.794Z,7.31
2023-02-20T03:43:26.502Z,7.35
2023-02-20T03:46:07.120Z,7.12
2023-02-20T03:48:42.940Z,7.30
2023-02-20T03:51:14.243Z,7.34
2023-02-20T03:53:44.742Z,7.30
2023-02-20T03:56:19.379Z,7.31
2023-02-20T03:58:55.315Z,7.24
2023-02-20T04:01:27.101Z,7.17
2023-02-20T04:03:57.787Z,7.23
2023-02-20T04:06:30.970Z,7.21
2023-02-20T04:09:01.780Z,6.97
2023-02-20T04:11:45.716Z,7.11
2023-02-20T04:14:17.601Z,6.94
2023-02-20T04:16:55.264Z,7.07
2023-02-20T04:19:23.352Z,7.01
2023-02-20T04:21:55.913Z,6.92
2023-02-20T04:24:48.064Z,6.90
2023-02-20T04:27:16.425Z,6.85
2023-02-20T04:29:45.805Z,6.80
2023-02-20T04:32:13.553Z,6.60
2023-02-20T04:34:41.783Z,6.67
2023-02-20T04:37:16.756Z,6.65
2023-02-20T04:39:44.723Z,6.53
2023-02-20T04:42:13.177Z,6.38
2023-02-20T04:44:46.444Z,6.39
2023-02-20T04:47:17.022Z,6.30
2023-02-20T04:49:48.229Z,6.44
2023-02-20T04:52:16.600Z,6.38
2023-02-20T04:54:44.385Z,6.37
2023-02-20T04:57:12.602Z,6.26
2023-02-20T04:59:41.455Z,6.15
2023-02-20T05:02:11.216Z,6.04
2023-02-20T05:04:38.945Z,5.98
2023-02-20T05:07:06.909Z,5.97
2023-02-20T05:09:35.294Z,6.05
2023-02-20T05:12:03.407Z,5.69
2023-02-20T05:14:31.289Z,5.76
2023-02-20T05:16:58.973Z,5.69
2023-02-20T05:19:26.580Z,5.66
2023-02-20T05:22:13.180Z,5.80
2023-02-20T05:24:44.303Z,5.91
2023-02-20T05:27:14.862Z,5.67
2023-02-20T05:29:52.051Z,5.97
2023-02-20T05:32:21.708Z,5.80
2023-02-20T05:34:49.322Z,5.82
2023-02-20T05:37:19.050Z,5.77
2023-02-20T05:39:47.776Z,5.53
2023-02-20T05:42:16.225Z,5.52
2023-02-20T05:44:44.300Z,5.56
2023-02-20T05:47:12.443Z,5.64
2023-02-20T05:49:40.499Z,5.27
2023-02-20T05:52:11.735Z,5.37
2023-02-20T05:54:40.836Z,5.37
2023-02-20T05:57:11.146Z,5.14
2023-02-20T05:59:39.843Z,5.59
2023-02-20T06:02:07.466Z,5.71
2023-02-20T06:04:35.462Z,5.83
2023-02-20T06:07:03.181Z,5.72
2023-02-20T06:09:30.784Z,5.94
2023-02-20T06:11:58.883Z,5.46
2023-02-20T06:14:27.647Z,5.37
2023-02-20T06:16:57.912Z,5.80
2023-02-20T06:19:26.368Z,5.99
2023-02-20T06:21:55.015Z,5.73
2023-02-20T06:24:22.627Z,5.73
2023-02-20T06:26:50.761Z,5.40
2023-02-20T06:29:19.706Z,5.83
2023-02-20T06:31:48.346Z,5.77
2023-02-20T06:34:17.207Z,5.25
2023-02-20T06:36:45.238Z,5.84
2023-02-20T06:39:14.477Z,5.99
2023-02-20T06:41:43.195Z,5.77
2023-02-20T06:44:10.954Z,5.97
2023-02-20T06:46:38.642Z,5.63
2023-02-20T06:49:06.760Z,5.91
2023-02-20T06:51:34.881Z,5.81
2023-02-20T06:54:04.058Z,5.84
2023-02-20T06:56:33.936Z,5.92
2023-02-20T06:59:04.382Z,5.73
2023-02-20T07:01:41.687Z,5.62
2023-02-20T07:04:35.465Z,5.87
2023-02-20T07:07:03.535Z,5.81
2023-02-20T07:09:31.442Z,5.69
2023-02-20T07:11:59.140Z,6.00
2023-02-20T07:14:27.021Z,5.47
2023-02-20T07:16:54.558Z,6.18
2023-02-20T07:19:22.399Z,6.53
2023-02-20T07:21:51.010Z,6.01
2023-02-20T07:24:18.641Z,6.47
2023-02-20T07:26:46.214Z,6.67
2023-02-20T07:29:14.936Z,6.73
2023-02-20T07:31:42.992Z,6.56
2023-02-20T07:34:11.576Z,6.66
2023-02-20T07:36:41.288Z,6.39
2023-02-20T07:39:08.911Z,6.60
2023-02-20T07:41:36.981Z,7.04
2023-02-20T07:44:06.341Z,6.73
2023-02-20T07:46:36.213Z,6.91
2023-02-20T07:49:05.587Z,6.82
2023-02-20T07:51:33.815Z,7.26
2023-02-20T07:54:01.785Z,7.21
2023-02-20T07:56:30.546Z,7.33
2023-02-20T07:59:00.855Z,7.61
2023-02-20T08:01:29.980Z,7.27
2023-02-20T08:03:58.397Z,7.13
2023-02-20T08:06:26.002Z,7.63
2023-02-20T08:08:53.574Z,7.84
2023-02-20T08:11:23.422Z,8.05
2023-02-20T08:13:51.596Z,8.25
2023-02-20T08:16:19.386Z,8.07
2023-02-20T08:18:47.276Z,7.89
2023-02-20T08:21:17.902Z,8.14
2023-02-20T08:23:45.499Z,8.14
2023-02-20T08:26:14.004Z,7.59
2023-02-20T08:28:41.730Z,7.86
2023-02-20T08:31:11.938Z,7.92
2023-02-20T08:33:45.589Z,8.53
2023-02-20T08:36:15.473Z,8.75
2023-02-20T08:38:43.117Z,8.73
2023-02-20T08:41:12.681Z,8.83
2023-02-20T08:43:43.534Z,8.60
2023-02-20T08:46:12.256Z,8.73
2023-02-20T08:48:40.234Z,8.08
2023-02-20T08:51:08.456Z,8.78
2023-02-20T08:53:39.173Z,8.47
2023-02-20T08:56:07.459Z,8.53
2023-02-20T08:58:35.126Z,8.32
2023-02-20T09:01:03.161Z,8.15
2023-02-20T09:03:30.880Z,7.34
2023-02-20T09:05:58.463Z,7.95
2023-02-20T09:08:26.496Z,7.54
2023-02-20T09:10:54.280Z,8.20
2023-02-20T09:13:21.981Z,7.81
2023-02-20T09:15:49.796Z,8.24
2023-02-20T09:18:17.421Z,8.34
2023-02-20T09:20:45.186Z,7.96
2023-02-20T09:23:14.493Z,8.28
2023-02-20T09:25:42.139Z,7.78
2023-02-20T09:28:12.422Z,8.28
2023-02-20T09:30:40.714Z,8.30
2023-02-20T09:33:08.450Z,7.95
2023-02-20T09:35:36.059Z,8.27
2023-02-20T09:38:04.145Z,7.81
2023-02-20T09:40:32.732Z,8.01
2023-02-20T09:43:18.661Z,8.43
2023-02-20T09:46:22.310Z,8.32
2023-02-20T09:48:52.431Z,8.31
2023-02-20T09:51:23.330Z,8.41
2023-02-20T09:53:54.059Z,8.03
2023-02-20T09:56:28.555Z,7.67
2023-02-20T09:59:03.079Z,8.11
2023-02-20T10:01:34.183Z,8.66
2023-02-20T10:04:10.350Z,8.32
2023-02-20T10:06:39.808Z,7.97
2023-02-20T10:09:12.853Z,8.31
2023-02-20T10:11:46.604Z,7.90
2023-02-20T10:14:29.446Z,8.24
2023-02-20T10:17:19.016Z,8.48
2023-02-20T10:19:51.554Z,8.06
2023-02-20T10:22:58.003Z,8.31
2023-02-20T10:25:33.715Z,8.40
2023-02-20T10:28:08.992Z,8.14
2023-02-20T10:30:42.614Z,7.82
2023-02-20T10:33:10.162Z,8.10
2023-02-20T10:36:04.628Z,8.03
2023-02-20T10:38:41.317Z,8.36
2023-02-20T10:42:00.250Z,8.54
2023-02-20T10:44:46.371Z,7.77
2023-02-20T10:47:30.911Z,7.80
2023-02-20T10:50:08.073Z,8.46
2023-02-20T10:52:54.217Z,8.18
2023-02-20T10:55:28.716Z,8.03
2023-02-20T10:58:16.687Z,7.57
2023-02-20T11:00:51.272Z,7.66
2023-02-20T11:03:26.252Z,7.49
2023-02-20T11:05:57.207Z,7.55
2023-02-20T11:08:25.210Z,7.52
2023-02-20T11:10:58.535Z,7.60
2023-02-20T11:13:26.721Z,8.02
2023-02-20T11:15:56.872Z,8.11
2023-02-20T11:18:35.899Z,8.16
2023-02-20T11:21:04.231Z,8.01
2023-02-20T11:23:40.280Z,7.81
2023-02-20T11:26:31.912Z,7.31
2023-02-20T11:29:05.653Z,7.32
2023-02-20T11:31:35.214Z,7.81
2023-02-20T11:34:05.455Z,7.78
2023-02-20T11:36:42.344Z,7.78
2023-02-20T11:39:30.737Z,7.76
2023-02-20T11:42:13.428Z,8.08
2023-02-20T11:44:41.040Z,8.30
2023-02-20T11:47:28.074Z,8.54
2023-02-20T11:50:18.996Z,8.35
2023-02-20T11:53:05.115Z,8.43
2023-02-20T11:55:34.027Z,8.31
2023-02-20T11:58:02.809Z,8.25
2023-02-20T12:00:46.394Z,8.38
2023-02-20T12:03:21.077Z,8.45
2023-02-20T12:05:50.066Z,8.63
2023-02-20T12:08:24.213Z,8.51
2023-02-20T12:10:56.099Z,7.92
2023-02-20T12:13:24.276Z,7.99
2023-02-20T12:15:59.982Z,8.34
2023-02-20T12:18:49.627Z,8.20
2023-02-20T12:21:45.203Z,8.26
2023-02-20T12:24:29.101Z,8.20
2023-02-20T12:27:00.328Z,9.00
2023-02-20T12:29:33.832Z,8.61
2023-02-20T12:32:14.945Z,8.98
2023-02-20T12:35:02.449Z,8.79
2023-02-20T12:38:16.849Z,8.41
2023-02-20T12:40:47.873Z,8.53
2023-02-20T12:44:11.421Z,8.58
2023-02-20T12:47:18.796Z,8.34
2023-02-20T12:50:23.823Z,8.57
2023-02-20T12:53:19.248Z,8.77
2023-02-20T12:56:02.170Z,8.63
2023-02-20T12:59:03.959Z,9.15
2023-02-20T13:01:39.804Z,9.15
2023-02-20T13:04:20.132Z,9.35
2023-02-20T13:07:14.074Z,9.30
2023-02-20T13:09:58.722Z,9.06
2023-02-20T13:12:26.352Z,8.89
2023-02-20T13:15:27.748Z,9.20
2023-02-20T13:17:55.551Z,9.03
2023-02-20T13:20:28.579Z,9.20
2023-02-20T13:23:25.704Z,9.04
2023-02-20T13:25:56.391Z,9.06
2023-02-20T13:28:33.216Z,9.06
2023-02-20T13:31:18.695Z,9.42
2023-02-20T13:34:06.537Z,9.60
2023-02-20T13:36:45.893Z,9.71
2023-02-20T13:39:20.054Z,9.49
2023-02-20T13:41:56.358Z,9.73
2023-02-20T13:44:29.957Z,10.01
2023-02-20T13:46:58.736Z,9.92
2023-02-20T13:49:50.323Z,10.12
2023-02-20T13:52:30.378Z,9.84
2023-02-20T13:55:02.371Z,10.32
2023-02-20T13:57:33.952Z,10.13
2023-02-20T14:00:15.092Z,10.08
2023-02-20T14:02:45.457Z,10.07
2023-02-20T14:05:22.376Z,10.14
2023-02-20T14:07:50.878Z,10.37
2023-02-20T14:10:31.241Z,10.37
2023-02-20T14:13:23.015Z,10.12
2023-02-20T14:15:57.303Z,10.33
2023-02-20T14:18:28.822Z,10.51
2023-02-20T14:21:06.721Z,10.32
2023-02-20T14:23:35.621Z,10.43
2023-02-20T14:26:06.082Z,10.53
2023-02-20T14:28:36.704Z,10.56
2023-02-20T14:31:19.181Z,10.66
2023-02-20T14:33:49.218Z,10.62
2023-02-20T14:36:40.050Z,10.74
2023-02-20T14:39:46.200Z,10.82
2023-02-20T14:42:16.889Z,10.87
2023-02-20T14:44:48.896Z,10.82
2023-02-20T14:47:17.888Z,10.75
2023-02-20T14:49:46.242Z,10.73
2023-02-20T14:52:19.415Z,10.83
2023-02-20T14:55:17.978Z,10.77
2023-02-20T14:57:45.627Z,10.84
2023-02-20T15:00:17.234Z,10.60
2023-02-20T15:02:53.240Z,10.55
2023-02-20T15:05:34.267Z,10.71
2023-02-20T15:08:20.927Z,10.61
2023-02-20T15:10:52.672Z,10.57
2023-02-20T15:13:24.682Z,10.56
2023-02-20T15:16:04.528Z,10.52
2023-02-20T15:18:37.853Z,10.48
2023-02-20T15:21:06.904Z,10.33
2023-02-20T15:23:45.663Z,10.41
2023-02-20T15:26:33.071Z,10.53
2023-02-20T15:29:20.741Z,10.47
2023-02-20T15:32:15.553Z,10.60
2023-02-20T15:34:43.374Z,10.68
2023-02-20T15:37:20.207Z,10.57
2023-02-20T15:39:52.646Z,10.44
2023-02-20T15:42:23.935Z,10.60
2023-02-20T15:44:53.222Z,10.14
2023-02-20T15:47:21.108Z,10.19
2023-02-20T15:49:53.578Z,10.20
2023-02-20T15:52:22.181Z,9.98
2023-02-20T15:54:54.602Z,9.80
2023-02-20T15:57:23.234Z,10.16
2023-02-20T15:59:51.112Z,10.00
2023-02-20T16:02:21.401Z,10.14
2023-02-20T16:04:51.023Z,9.99
2023-02-20T16:07:20.496Z,10.08
2023-02-20T16:09:49.152Z,10.14
2023-02-20T16:12:28.575Z,10.03
2023-02-20T16:14:57.602Z,10.09
2023-02-20T16:17:28.151Z,9.96
2023-02-20T16:19:56.186Z,9.77
2023-02-20T16:22:24.047Z,9.87
2023-02-20T16:24:52.051Z,9.75
2023-02-20T16:27:26.327Z,9.75
2023-02-20T16:29:56.830Z,9.70
2023-02-20T16:32:26.760Z,9.74
2023-02-20T16:34:56.797Z,9.89
2023-02-20T16:37:25.739Z,9.63
2023-02-20T16:39:55.801Z,9.55
2023-02-20T16:42:28.116Z,9.69
2023-02-20T16:44:58.704Z,9.59
2023-02-20T16:47:31.107Z,9.47
2023-02-20T16:50:01.624Z,9.65
2023-02-20T16:52:32.984Z,9.71
2023-02-20T16:55:04.335Z,9.52
2023-02-20T16:57:32.558Z,9.19
2023-02-20T17:00:00.966Z,9.30
2023-02-20T17:02:31.612Z,9.52
2023-02-20T17:05:00.416Z,9.41
2023-02-20T17:07:30.289Z,9.59
2023-02-20T17:09:58.559Z,9.54
2023-02-20T17:12:26.890Z,9.34
2023-02-20T17:14:54.605Z,9.29
2023-02-20T17:17:22.986Z,9.18
2023-02-20T17:19:53.001Z,9.31
2023-02-20T17:22:22.259Z,9.23
2023-02-20T17:24:50.590Z,9.00
2023-02-20T17:27:19.251Z,9.03
2023-02-20T17:29:50.252Z,9.17
2023-02-20T17:32:18.630Z,9.00
2023-02-20T17:34:46.582Z,8.87
2023-02-20T17:37:15.199Z,8.87
2023-02-20T17:39:45.332Z,8.79
2023-02-20T17:42:13.011Z,9.09
2023-02-20T17:44:41.133Z,8.67
2023-02-20T17:47:10.624Z,8.70
2023-02-20T17:49:41.332Z,8.59
2023-02-20T17:52:11.034Z,8.90
2023-02-20T17:54:39.708Z,8.91
2023-02-20T17:57:07.603Z,9.02
2023-02-20T17:59:42.228Z,8.91
2023-02-20T18:02:14.972Z,8.99
2023-02-20T18:04:43.495Z,8.76
2023-02-20T18:07:12.394Z,9.19
2023-02-20T18:09:40.468Z,9.04
2023-02-20T18:12:08.949Z,8.89
2023-02-20T18:14:36.757Z,8.81
2023-02-20T18:17:04.732Z,9.09
2023-02-20T18:19:33.097Z,9.02
2023-02-20T18:22:00.816Z,9.15
2023-02-20T18:24:30.275Z,9.21
2023-02-20T18:26:58.746Z,9.06
2023-02-20T18:29:28.208Z,8.94
2023-02-20T18:31:57.749Z,8.87
2023-02-20T18:34:27.946Z,8.52
2023-02-20T18:36:55.999Z,8.47
2023-02-20T18:39:24.100Z,8.63
2023-02-20T18:41:57.103Z,8.72
2023-02-20T18:44:25.058Z,8.73
2023-02-20T18:46:53.376Z,8.99
2023-02-20T18:49:21.300Z,8.53
2023-02-20T18:51:49.415Z,8.73
2023-02-20T18:54:21.112Z,8.67
2023-02-20T18:56:53.078Z,8.72
2023-02-20T18:59:23.014Z,8.56
2023-02-20T19:01:50.990Z,8.55
2023-02-20T19:04:18.963Z,8.97
2023-02-20T19:06:48.655Z,8.69
2023-02-20T19:09:24.687Z,8.77
2023-02-20T19:11:55.493Z,8.97
2023-02-20T19:14:26.365Z,8.68
2023-02-20T19:16:58.187Z,8.65
2023-02-20T19:19:29.722Z,8.20
2023-02-20T19:22:04.253Z,8.46
2023-02-20T19:24:32.064Z,8.42
2023-02-20T19:27:00.226Z,8.53
2023-02-20T19:29:30.160Z,8.49
2023-02-20T19:32:00.296Z,8.54
2023-02-20T19:34:28.705Z,8.64
2023-02-20T19:36:56.648Z,8.67
2023-02-20T19:39:24.609Z,8.19
2023-02-20T19:41:53.500Z,8.32
2023-02-20T19:44:24.173Z,8.18
2023-02-20T19:46:53.417Z,8.37
2023-02-20T19:49:22.769Z,8.15
2023-02-20T19:51:52.379Z,8.16
2023-02-20T19:54:27.703Z,8.01
2023-02-20T19:56:59.145Z,8.14
2023-02-20T19:59:29.178Z,7.98
2023-02-20T20:01:59.573Z,7.85
2023-02-20T20:04:32.135Z,7.84
2023-02-20T20:07:02.542Z,7.96
2023-02-20T20:09:38.592Z,8.00
2023-02-20T20:12:26.721Z,7.71
2023-02-20T20:14:55.969Z,7.60
2023-02-20T20:17:24.005Z,7.56
2023-02-20T20:19:59.414Z,7.47
2023-02-20T20:22:29.723Z,7.50
2023-02-20T20:24:58.419Z,7.68
2023-02-20T20:27:26.026Z,7.83
2023-02-20T20:29:54.989Z,7.96
2023-02-20T20:32:23.415Z,7.98
2023-02-20T20:34:55.761Z,7.90
2023-02-20T20:37:25.919Z,7.91
2023-02-20T20:39:56.414Z,8.24
2023-02-20T20:42:26.231Z,7.98
2023-02-20T20:44:56.879Z,7.73
2023-02-20T20:47:27.626Z,7.69
2023-02-20T20:49:59.988Z,7.85
2023-02-20T20:52:31.043Z,7.85
2023-02-20T20:55:02.810Z,7.89
2023-02-20T20:57:35.522Z,8.10
2023-02-20T21:00:18.482Z,8.03
2023-02-20T21:02:47.803Z,8.17
2023-02-20T21:05:19.290Z,8.00
2023-02-20T21:07:50.688Z,8.09
2023-02-20T21:10:19.471Z,8.24
2023-02-20T21:12:48.505Z,8.24
2023-02-20T21:15:16.275Z,8.11
2023-02-20T21:17:44.712Z,7.94
2023-02-20T21:20:24.683Z,8.22
2023-02-20T21:22:53.290Z,8.25
2023-02-20T21:25:25.247Z,8.29
2023-02-20T21:27:55.039Z,8.36
2023-02-20T21:30:25.053Z,8.19
2023-02-20T21:32:53.158Z,8.23
2023-02-20T21:35:22.023Z,8.23
2023-02-20T21:37:50.208Z,8.36
2023-02-20T21:40:19.045Z,8.34
2023-02-20T21:43:05.554Z,8.16
2023-02-20T21:45:36.213Z,8.40
2023-02-20T21:48:05.345Z,8.27
2023-02-20T21:50:33.273Z,8.22
2023-02-20T21:53:02.096Z,8.51
2023-02-20T21:55:29.786Z,8.19
2023-02-20T21:57:58.304Z,8.28
2023-02-20T22:00:25.955Z,8.15
2023-02-20T22:02:54.120Z,8.39
2023-02-20T22:05:21.743Z,8.16
2023-02-20T22:08:07.683Z,8.23
2023-02-20T22:10:54.697Z,8.07
2023-02-20T22:13:41.043Z,8.10
2023-02-20T22:16:27.519Z,8.27
2023-02-20T22:19:14.949Z,7.95
2023-02-20T22:22:01.589Z,8.21
2023-02-20T22:24:47.399Z,8.15
2023-02-20T22:27:33.896Z,8.19
2023-02-20T22:30:22.203Z,8.12
2023-02-20T22:33:12.105Z,7.91
2023-02-20T22:35:58.544Z,7.86
2023-02-20T22:38:45.409Z,7.85
2023-02-20T22:41:40.064Z,8.03
2023-02-20T22:44:27.043Z,8.15
2023-02-20T22:47:13.408Z,8.15
2023-02-20T22:50:00.541Z,8.10
2023-02-20T22:52:46.966Z,8.06
2023-02-20T22:55:33.498Z,8.15
2023-02-20T22:58:20.079Z,8.10
2023-02-20T23:01:06.760Z,8.18
2023-02-20T23:03:52.885Z,8.30
2023-02-20T23:06:40.494Z,8.19
2023-02-20T23:09:28.078Z,8.02
2023-02-20T23:12:15.279Z,8.28
2023-02-20T23:15:01.707Z,8.17
2023-02-20T23:17:48.701Z,8.21
2023-02-20T23:20:38.690Z,8.35
2023-02-20T23:23:27.144Z,8.38
2023-02-20T23:26:13.409Z,8.38
2023-02-20T23:29:00.262Z,8.28
2023-02-20T23:31:57.323Z,8.19
2023-02-20T23:34:45.458Z,8.21
2023-02-20T23:37:32.421Z,8.26
2023-02-20T23:40:30.879Z,8.39
2023-02-20T23:43:26.432Z,8.26
2023-02-20T23:46:13.381Z,8.42
2023-02-20T23:48:59.885Z,8.23
2023-02-20T23:51:46.801Z,8.29
2023-02-20T23:54:32.885Z,8.33
2023-02-20T23:57:19.701Z,8.39
